sensor_id;sensor_type;location;lat;lon;timestamp;P1;durP1;ratioP1;P2;durP2;ratioP2
23175;SDS011;19910;42.652;23.332;2023-01-30T00:01:34;5.80;;;2.72;;
23175;SDS011;19910;42.652;23.332;2023-01-30T00:04:03;4.85;;;2.55;;
23175;SDS011;19910;42.652;23.332;2023-01-30T00:06:30;3.35;;;1.50;;
23175;SDS011;19910;42.652;23.332;2023-01-30T00:08:57;6.70;;;3.05;;
23175;SDS011;19910;42.652;23.332;2023-01-30T00:11:24;5.05;;;3.20;;
23175;SDS011;19910;42.652;23.332;2023-01-30T00:13:52;5.22;;;3.20;;
23175;SDS011;19910;42.652;23.332;2023-01-30T00:16:19;8.88;;;4.47;;
23175;SDS011;19910;42.652;23.332;2023-01-30T00:18:52;18.50;;;9.25;;
23175;SDS011;19910;42.652;23.332;2023-01-30T00:21:20;17.15;;;7.95;;
23175;SDS011;19910;42.652;23.332;2023-01-30T00:23:47;4.60;;;2.55;;
23175;SDS011;19910;42.652;23.332;2023-01-30T00:26:14;3.05;;;2.45;;
23175;SDS011;19910;42.652;23.332;2023-01-30T00:28:40;7.47;;;3.53;;
23175;SDS011;19910;42.652;23.332;2023-01-30T00:31:07;10.15;;;3.80;;
23175;SDS011;19910;42.652;23.332;2023-01-30T00:33:35;9.27;;;3.70;;
23175;SDS011;19910;42.652;23.332;2023-01-30T00:36:03;7.78;;;3.78;;
23175;SDS011;19910;42.652;23.332;2023-01-30T00:38:32;6.22;;;3.40;;
23175;SDS011;19910;42.652;23.332;2023-01-30T00:40:59;4.28;;;2.53;;
23175;SDS011;19910;42.652;23.332;2023-01-30T00:43:28;9.82;;;5.55;;
23175;SDS011;19910;42.652;23.332;2023-01-30T00:46:14;13.75;;;6.68;;
23175;SDS011;19910;42.652;23.332;2023-01-30T00:49:07;23.83;;;10.75;;
23175;SDS011;19910;42.652;23.332;2023-01-30T00:51:36;7.75;;;4.40;;
23175;SDS011;19910;42.652;23.332;2023-01-30T00:54:04;13.88;;;6.05;;
23175;SDS011;19910;42.652;23.332;2023-01-30T00:56:31;6.57;;;3.55;;
23175;SDS011;19910;42.652;23.332;2023-01-30T00:58:58;11.95;;;3.63;;
23175;SDS011;19910;42.652;23.332;2023-01-30T01:01:25;5.43;;;2.78;;
23175;SDS011;19910;42.652;23.332;2023-01-30T01:03:52;10.07;;;3.42;;
23175;SDS011;19910;42.652;23.332;2023-01-30T01:06:18;19.85;;;8.48;;
23175;SDS011;19910;42.652;23.332;2023-01-30T01:08:45;23.27;;;9.10;;
23175;SDS011;19910;42.652;23.332;2023-01-30T01:11:13;12.68;;;6.95;;
23175;SDS011;19910;42.652;23.332;2023-01-30T01:13:48;13.45;;;5.40;;
23175;SDS011;19910;42.652;23.332;2023-01-30T01:16:16;20.80;;;6.85;;
23175;SDS011;19910;42.652;23.332;2023-01-30T01:18:43;13.95;;;7.47;;
23175;SDS011;19910;42.652;23.332;2023-01-30T01:21:09;22.80;;;10.40;;
23175;SDS011;19910;42.652;23.332;2023-01-30T01:23:37;13.02;;;6.13;;
23175;SDS011;19910;42.652;23.332;2023-01-30T01:26:04;7.43;;;3.28;;
23175;SDS011;19910;42.652;23.332;2023-01-30T01:28:32;17.88;;;4.20;;
23175;SDS011;19910;42.652;23.332;2023-01-30T01:30:59;10.10;;;4.85;;
23175;SDS011;19910;42.652;23.332;2023-01-30T01:33:26;10.05;;;4.85;;
23175;SDS011;19910;42.652;23.332;2023-01-30T01:35:54;12.48;;;4.72;;
23175;SDS011;19910;42.652;23.332;2023-01-30T01:38:21;13.38;;;6.22;;
23175;SDS011;19910;42.652;23.332;2023-01-30T01:40:48;9.38;;;4.28;;
23175;SDS011;19910;42.652;23.332;2023-01-30T01:43:26;7.72;;;4.15;;
23175;SDS011;19910;42.652;23.332;2023-01-30T01:45:57;2.17;;;1.40;;
23175;SDS011;19910;42.652;23.332;2023-01-30T01:48:26;6.72;;;3.40;;
23175;SDS011;19910;42.652;23.332;2023-01-30T01:50:56;3.58;;;2.55;;
23175;SDS011;19910;42.652;23.332;2023-01-30T01:53:25;8.27;;;4.82;;
23175;SDS011;19910;42.652;23.332;2023-01-30T01:55:56;7.78;;;4.65;;
23175;SDS011;19910;42.652;23.332;2023-01-30T01:58:25;2.63;;;2.38;;
23175;SDS011;19910;42.652;23.332;2023-01-30T02:00:59;10.43;;;4.28;;
23175;SDS011;19910;42.652;23.332;2023-01-30T02:03:27;12.30;;;4.88;;
23175;SDS011;19910;42.652;23.332;2023-01-30T02:05:59;11.65;;;4.13;;
23175;SDS011;19910;42.652;23.332;2023-01-30T02:08:28;7.90;;;5.38;;
23175;SDS011;19910;42.652;23.332;2023-01-30T02:10:59;10.00;;;3.13;;
23175;SDS011;19910;42.652;23.332;2023-01-30T02:13:31;7.32;;;3.25;;
23175;SDS011;19910;42.652;23.332;2023-01-30T02:16:00;4.93;;;2.70;;
23175;SDS011;19910;42.652;23.332;2023-01-30T02:18:28;2.78;;;1.77;;
23175;SDS011;19910;42.652;23.332;2023-01-30T02:24:04;3.08;;;2.45;;
23175;SDS011;19910;42.652;23.332;2023-01-30T02:27:05;3.42;;;1.55;;
23175;SDS011;19910;42.652;23.332;2023-01-30T02:32:47;6.00;;;3.47;;
23175;SDS011;19910;42.652;23.332;2023-01-30T02:35:22;2.90;;;2.28;;
23175;SDS011;19910;42.652;23.332;2023-01-30T02:37:59;4.65;;;1.35;;
23175;SDS011;19910;42.652;23.332;2023-01-30T02:40:35;4.95;;;1.20;;
23175;SDS011;19910;42.652;23.332;2023-01-30T02:43:12;3.35;;;2.40;;
23175;SDS011;19910;42.652;23.332;2023-01-30T02:45:48;6.00;;;2.28;;
23175;SDS011;19910;42.652;23.332;2023-01-30T02:48:22;2.08;;;1.40;;
23175;SDS011;19910;42.652;23.332;2023-01-30T02:50:52;7.60;;;3.38;;
23175;SDS011;19910;42.652;23.332;2023-01-30T02:53:24;3.78;;;2.10;;
23175;SDS011;19910;42.652;23.332;2023-01-30T02:55:51;5.28;;;2.72;;
23175;SDS011;19910;42.652;23.332;2023-01-30T02:58:18;5.28;;;1.58;;
23175;SDS011;19910;42.652;23.332;2023-01-30T03:04:05;5.78;;;2.35;;
23175;SDS011;19910;42.652;23.332;2023-01-30T03:06:56;4.82;;;2.50;;
23175;SDS011;19910;42.652;23.332;2023-01-30T03:09:38;3.83;;;2.63;;
23175;SDS011;19910;42.652;23.332;2023-01-30T03:12:10;4.88;;;2.08;;
23175;SDS011;19910;42.652;23.332;2023-01-30T03:14:44;4.20;;;2.22;;
23175;SDS011;19910;42.652;23.332;2023-01-30T03:17:14;3.33;;;2.20;;
23175;SDS011;19910;42.652;23.332;2023-01-30T03:19:45;5.38;;;3.35;;
23175;SDS011;19910;42.652;23.332;2023-01-30T03:22:12;4.82;;;2.72;;
23175;SDS011;19910;42.652;23.332;2023-01-30T03:24:39;3.70;;;2.67;;
23175;SDS011;19910;42.652;23.332;2023-01-30T03:27:07;2.72;;;1.70;;
23175;SDS011;19910;42.652;23.332;2023-01-30T03:29:37;7.03;;;3.08;;
23175;SDS011;19910;42.652;23.332;2023-01-30T03:32:04;6.20;;;2.03;;
23175;SDS011;19910;42.652;23.332;2023-01-30T03:34:31;5.68;;;2.97;;
23175;SDS011;19910;42.652;23.332;2023-01-30T03:36:59;5.25;;;3.05;;
23175;SDS011;19910;42.652;23.332;2023-01-30T03:39:26;5.18;;;2.42;;
23175;SDS011;19910;42.652;23.332;2023-01-30T03:41:53;7.55;;;2.97;;
23175;SDS011;19910;42.652;23.332;2023-01-30T03:44:20;7.45;;;3.72;;
23175;SDS011;19910;42.652;23.332;2023-01-30T03:46:47;7.68;;;2.42;;
23175;SDS011;19910;42.652;23.332;2023-01-30T03:49:14;6.47;;;1.85;;
23175;SDS011;19910;42.652;23.332;2023-01-30T03:51:41;3.95;;;2.50;;
23175;SDS011;19910;42.652;23.332;2023-01-30T03:54:09;8.77;;;2.95;;
23175;SDS011;19910;42.652;23.332;2023-01-30T03:56:35;4.75;;;2.97;;
23175;SDS011;19910;42.652;23.332;2023-01-30T03:59:02;11.52;;;4.45;;
23175;SDS011;19910;42.652;23.332;2023-01-30T04:01:29;6.28;;;2.78;;
23175;SDS011;19910;42.652;23.332;2023-01-30T04:03:56;6.28;;;3.08;;
23175;SDS011;19910;42.652;23.332;2023-01-30T04:06:23;16.42;;;7.95;;
23175;SDS011;19910;42.652;23.332;2023-01-30T04:08:51;38.33;;;16.15;;
23175;SDS011;19910;42.652;23.332;2023-01-30T04:11:19;10.98;;;5.80;;
23175;SDS011;19910;42.652;23.332;2023-01-30T04:13:46;17.33;;;7.90;;
23175;SDS011;19910;42.652;23.332;2023-01-30T04:16:13;12.70;;;6.28;;
23175;SDS011;19910;42.652;23.332;2023-01-30T04:18:42;16.13;;;7.43;;
23175;SDS011;19910;42.652;23.332;2023-01-30T04:21:09;11.90;;;4.93;;
23175;SDS011;19910;42.652;23.332;2023-01-30T04:23:35;16.70;;;5.88;;
23175;SDS011;19910;42.652;23.332;2023-01-30T04:26:03;15.35;;;7.00;;
23175;SDS011;19910;42.652;23.332;2023-01-30T04:28:31;2.28;;;1.77;;
23175;SDS011;19910;42.652;23.332;2023-01-30T04:30:58;7.20;;;3.53;;
23175;SDS011;19910;42.652;23.332;2023-01-30T04:33:25;6.70;;;4.18;;
23175;SDS011;19910;42.652;23.332;2023-01-30T04:35:52;6.60;;;3.53;;
23175;SDS011;19910;42.652;23.332;2023-01-30T04:38:19;12.57;;;4.43;;
23175;SDS011;19910;42.652;23.332;2023-01-30T04:40:49;4.80;;;2.65;;
23175;SDS011;19910;42.652;23.332;2023-01-30T04:43:16;4.00;;;2.60;;
23175;SDS011;19910;42.652;23.332;2023-01-30T04:45:45;5.85;;;3.95;;
23175;SDS011;19910;42.652;23.332;2023-01-30T04:48:12;8.65;;;4.05;;
23175;SDS011;19910;42.652;23.332;2023-01-30T04:50:40;6.18;;;2.88;;
23175;SDS011;19910;42.652;23.332;2023-01-30T04:53:08;3.70;;;2.35;;
23175;SDS011;19910;42.652;23.332;2023-01-30T04:55:35;8.43;;;3.35;;
23175;SDS011;19910;42.652;23.332;2023-01-30T04:58:03;9.65;;;3.20;;
23175;SDS011;19910;42.652;23.332;2023-01-30T05:00:30;7.82;;;4.53;;
23175;SDS011;19910;42.652;23.332;2023-01-30T05:02:59;6.30;;;2.90;;
23175;SDS011;19910;42.652;23.332;2023-01-30T05:05:26;9.65;;;3.15;;
23175;SDS011;19910;42.652;23.332;2023-01-30T05:07:53;6.75;;;3.20;;
23175;SDS011;19910;42.652;23.332;2023-01-30T05:10:20;6.95;;;3.75;;
23175;SDS011;19910;42.652;23.332;2023-01-30T05:12:47;6.03;;;2.97;;
23175;SDS011;19910;42.652;23.332;2023-01-30T05:15:14;6.45;;;3.15;;
23175;SDS011;19910;42.652;23.332;2023-01-30T05:17:40;8.25;;;4.05;;
23175;SDS011;19910;42.652;23.332;2023-01-30T05:20:09;5.35;;;3.17;;
23175;SDS011;19910;42.652;23.332;2023-01-30T05:22:38;9.20;;;4.55;;
23175;SDS011;19910;42.652;23.332;2023-01-30T05:25:05;4.97;;;3.63;;
23175;SDS011;19910;42.652;23.332;2023-01-30T05:27:32;4.40;;;2.97;;
23175;SDS011;19910;42.652;23.332;2023-01-30T05:29:59;9.75;;;3.05;;
23175;SDS011;19910;42.652;23.332;2023-01-30T05:32:26;14.48;;;4.45;;
23175;SDS011;19910;42.652;23.332;2023-01-30T05:34:54;8.55;;;2.42;;
23175;SDS011;19910;42.652;23.332;2023-01-30T05:37:23;9.57;;;4.80;;
23175;SDS011;19910;42.652;23.332;2023-01-30T05:39:50;4.95;;;2.63;;
23175;SDS011;19910;42.652;23.332;2023-01-30T05:42:17;12.35;;;4.35;;
23175;SDS011;19910;42.652;23.332;2023-01-30T05:44:43;12.02;;;4.28;;
23175;SDS011;19910;42.652;23.332;2023-01-30T05:47:10;6.32;;;3.00;;
23175;SDS011;19910;42.652;23.332;2023-01-30T05:49:37;10.10;;;4.50;;
23175;SDS011;19910;42.652;23.332;2023-01-30T05:52:04;7.85;;;3.85;;
23175;SDS011;19910;42.652;23.332;2023-01-30T05:54:32;7.70;;;3.67;;
23175;SDS011;19910;42.652;23.332;2023-01-30T05:56:59;6.25;;;3.17;;
23175;SDS011;19910;42.652;23.332;2023-01-30T05:59:29;6.18;;;2.90;;
23175;SDS011;19910;42.652;23.332;2023-01-30T06:01:55;15.13;;;5.20;;
23175;SDS011;19910;42.652;23.332;2023-01-30T06:04:22;10.63;;;4.30;;
23175;SDS011;19910;42.652;23.332;2023-01-30T06:06:49;7.22;;;3.63;;
23175;SDS011;19910;42.652;23.332;2023-01-30T06:09:16;7.68;;;4.90;;
23175;SDS011;19910;42.652;23.332;2023-01-30T06:11:44;12.13;;;4.28;;
23175;SDS011;19910;42.652;23.332;2023-01-30T06:14:11;14.35;;;6.55;;
23175;SDS011;19910;42.652;23.332;2023-01-30T06:16:38;13.32;;;7.53;;
23175;SDS011;19910;42.652;23.332;2023-01-30T06:19:04;11.60;;;5.15;;
23175;SDS011;19910;42.652;23.332;2023-01-30T06:21:31;24.27;;;10.60;;
23175;SDS011;19910;42.652;23.332;2023-01-30T06:23:58;24.27;;;10.00;;
23175;SDS011;19910;42.652;23.332;2023-01-30T06:26:24;26.63;;;12.23;;
23175;SDS011;19910;42.652;23.332;2023-01-30T06:28:53;9.68;;;4.30;;
23175;SDS011;19910;42.652;23.332;2023-01-30T06:31:19;11.80;;;5.95;;
23175;SDS011;19910;42.652;23.332;2023-01-30T06:33:46;8.82;;;4.35;;
23175;SDS011;19910;42.652;23.332;2023-01-30T06:36:14;12.40;;;6.13;;
23175;SDS011;19910;42.652;23.332;2023-01-30T06:38:41;17.50;;;6.15;;
23175;SDS011;19910;42.652;23.332;2023-01-30T06:41:07;13.52;;;7.63;;
23175;SDS011;19910;42.652;23.332;2023-01-30T06:43:34;25.83;;;5.75;;
23175;SDS011;19910;42.652;23.332;2023-01-30T06:46:02;15.23;;;5.68;;
23175;SDS011;19910;42.652;23.332;2023-01-30T06:48:29;10.20;;;4.10;;
23175;SDS011;19910;42.652;23.332;2023-01-30T06:50:56;11.65;;;6.07;;
23175;SDS011;19910;42.652;23.332;2023-01-30T06:53:22;14.68;;;5.78;;
23175;SDS011;19910;42.652;23.332;2023-01-30T06:55:54;6.28;;;3.20;;
23175;SDS011;19910;42.652;23.332;2023-01-30T06:58:21;20.85;;;6.55;;
23175;SDS011;19910;42.652;23.332;2023-01-30T07:00:48;11.57;;;4.78;;
23175;SDS011;19910;42.652;23.332;2023-01-30T07:03:16;6.50;;;2.88;;
23175;SDS011;19910;42.652;23.332;2023-01-30T07:05:44;11.95;;;6.60;;
23175;SDS011;19910;42.652;23.332;2023-01-30T07:08:13;12.60;;;6.13;;
23175;SDS011;19910;42.652;23.332;2023-01-30T07:10:41;18.48;;;7.57;;
23175;SDS011;19910;42.652;23.332;2023-01-30T07:13:08;5.22;;;3.47;;
23175;SDS011;19910;42.652;23.332;2023-01-30T07:15:35;13.93;;;6.32;;
23175;SDS011;19910;42.652;23.332;2023-01-30T07:18:02;20.13;;;8.23;;
23175;SDS011;19910;42.652;23.332;2023-01-30T07:20:30;14.10;;;7.82;;
23175;SDS011;19910;42.652;23.332;2023-01-30T07:22:57;7.80;;;4.65;;
23175;SDS011;19910;42.652;23.332;2023-01-30T07:25:24;7.22;;;2.85;;
23175;SDS011;19910;42.652;23.332;2023-01-30T07:27:52;13.50;;;7.40;;
23175;SDS011;19910;42.652;23.332;2023-01-30T07:30:20;10.00;;;4.78;;
23175;SDS011;19910;42.652;23.332;2023-01-30T07:32:50;17.13;;;6.55;;
23175;SDS011;19910;42.652;23.332;2023-01-30T07:35:18;10.20;;;5.85;;
23175;SDS011;19910;42.652;23.332;2023-01-30T07:37:47;12.80;;;4.50;;
23175;SDS011;19910;42.652;23.332;2023-01-30T07:40:15;7.85;;;4.65;;
23175;SDS011;19910;42.652;23.332;2023-01-30T07:42:42;9.75;;;5.32;;
23175;SDS011;19910;42.652;23.332;2023-01-30T07:45:09;10.25;;;4.13;;
23175;SDS011;19910;42.652;23.332;2023-01-30T07:47:36;9.68;;;3.70;;
23175;SDS011;19910;42.652;23.332;2023-01-30T07:50:04;4.82;;;1.88;;
23175;SDS011;19910;42.652;23.332;2023-01-30T07:52:31;8.68;;;4.63;;
23175;SDS011;19910;42.652;23.332;2023-01-30T07:54:59;6.53;;;3.30;;
23175;SDS011;19910;42.652;23.332;2023-01-30T07:57:26;7.85;;;4.13;;
23175;SDS011;19910;42.652;23.332;2023-01-30T07:59:53;7.53;;;4.75;;
23175;SDS011;19910;42.652;23.332;2023-01-30T08:02:20;10.60;;;4.60;;
23175;SDS011;19910;42.652;23.332;2023-01-30T08:04:46;5.63;;;3.80;;
23175;SDS011;19910;42.652;23.332;2023-01-30T08:07:13;3.65;;;2.25;;
23175;SDS011;19910;42.652;23.332;2023-01-30T08:09:40;14.25;;;4.70;;
23175;SDS011;19910;42.652;23.332;2023-01-30T08:12:08;5.35;;;2.47;;
23175;SDS011;19910;42.652;23.332;2023-01-30T08:14:35;5.05;;;2.25;;
23175;SDS011;19910;42.652;23.332;2023-01-30T08:17:02;9.45;;;4.00;;
23175;SDS011;19910;42.652;23.332;2023-01-30T08:19:28;7.05;;;3.00;;
23175;SDS011;19910;42.652;23.332;2023-01-30T08:21:57;5.00;;;2.55;;
23175;SDS011;19910;42.652;23.332;2023-01-30T08:24:24;9.05;;;3.80;;
23175;SDS011;19910;42.652;23.332;2023-01-30T08:26:51;12.43;;;5.80;;
23175;SDS011;19910;42.652;23.332;2023-01-30T08:29:19;8.27;;;3.67;;
23175;SDS011;19910;42.652;23.332;2023-01-30T08:31:45;3.72;;;2.15;;
23175;SDS011;19910;42.652;23.332;2023-01-30T08:34:12;7.38;;;3.65;;
23175;SDS011;19910;42.652;23.332;2023-01-30T08:36:39;12.15;;;4.63;;
23175;SDS011;19910;42.652;23.332;2023-01-30T08:39:06;8.63;;;4.55;;
23175;SDS011;19910;42.652;23.332;2023-01-30T08:41:33;5.03;;;2.60;;
23175;SDS011;19910;42.652;23.332;2023-01-30T08:43:59;10.48;;;4.30;;
23175;SDS011;19910;42.652;23.332;2023-01-30T08:46:27;5.82;;;2.65;;
23175;SDS011;19910;42.652;23.332;2023-01-30T08:48:54;9.00;;;3.70;;
23175;SDS011;19910;42.652;23.332;2023-01-30T08:51:21;8.32;;;4.25;;
23175;SDS011;19910;42.652;23.332;2023-01-30T08:53:48;10.73;;;3.78;;
23175;SDS011;19910;42.652;23.332;2023-01-30T08:56:14;2.75;;;1.77;;
23175;SDS011;19910;42.652;23.332;2023-01-30T08:58:41;3.92;;;3.15;;
23175;SDS011;19910;42.652;23.332;2023-01-30T09:01:10;4.97;;;2.70;;
23175;SDS011;19910;42.652;23.332;2023-01-30T09:03:39;7.45;;;4.05;;
23175;SDS011;19910;42.652;23.332;2023-01-30T09:06:06;7.78;;;3.08;;
23175;SDS011;19910;42.652;23.332;2023-01-30T09:08:33;10.52;;;3.53;;
23175;SDS011;19910;42.652;23.332;2023-01-30T09:10:59;6.10;;;2.97;;
23175;SDS011;19910;42.652;23.332;2023-01-30T09:13:27;5.10;;;3.03;;
23175;SDS011;19910;42.652;23.332;2023-01-30T09:15:55;7.30;;;3.70;;
23175;SDS011;19910;42.652;23.332;2023-01-30T09:18:23;6.85;;;3.22;;
23175;SDS011;19910;42.652;23.332;2023-01-30T09:20:51;4.55;;;2.60;;
23175;SDS011;19910;42.652;23.332;2023-01-30T09:23:18;4.35;;;2.58;;
23175;SDS011;19910;42.652;23.332;2023-01-30T09:25:45;6.20;;;3.30;;
23175;SDS011;19910;42.652;23.332;2023-01-30T09:28:12;3.30;;;2.13;;
23175;SDS011;19910;42.652;23.332;2023-01-30T09:30:40;5.82;;;2.83;;
23175;SDS011;19910;42.652;23.332;2023-01-30T09:33:06;4.47;;;2.53;;
23175;SDS011;19910;42.652;23.332;2023-01-30T09:35:33;6.80;;;3.53;;
23175;SDS011;19910;42.652;23.332;2023-01-30T09:38:01;10.88;;;5.13;;
23175;SDS011;19910;42.652;23.332;2023-01-30T09:40:30;20.92;;;4.47;;
23175;SDS011;19910;42.652;23.332;2023-01-30T09:45:57;18.88;;;7.82;;
23175;SDS011;19910;42.652;23.332;2023-01-30T09:48:30;6.93;;;4.70;;
23175;SDS011;19910;42.652;23.332;2023-01-30T09:51:08;5.25;;;4.28;;
23175;SDS011;19910;42.652;23.332;2023-01-30T09:53:57;8.15;;;3.90;;
23175;SDS011;19910;42.652;23.332;2023-01-30T09:56:29;9.82;;;4.40;;
23175;SDS011;19910;42.652;23.332;2023-01-30T09:58:57;4.53;;;2.30;;
23175;SDS011;19910;42.652;23.332;2023-01-30T10:01:28;7.55;;;4.25;;
23175;SDS011;19910;42.652;23.332;2023-01-30T10:04:04;7.32;;;3.85;;
23175;SDS011;19910;42.652;23.332;2023-01-30T10:06:40;9.77;;;5.00;;
23175;SDS011;19910;42.652;23.332;2023-01-30T10:09:18;10.43;;;4.50;;
23175;SDS011;19910;42.652;23.332;2023-01-30T10:11:59;7.90;;;4.10;;
23175;SDS011;19910;42.652;23.332;2023-01-30T10:14:43;7.00;;;4.13;;
23175;SDS011;19910;42.652;23.332;2023-01-30T10:17:31;18.80;;;6.93;;
23175;SDS011;19910;42.652;23.332;2023-01-30T10:20:16;13.75;;;5.68;;
23175;SDS011;19910;42.652;23.332;2023-01-30T10:22:58;14.48;;;6.57;;
23175;SDS011;19910;42.652;23.332;2023-01-30T10:25:32;13.38;;;6.82;;
23175;SDS011;19910;42.652;23.332;2023-01-30T10:28:05;22.65;;;7.60;;
23175;SDS011;19910;42.652;23.332;2023-01-30T10:30:37;12.02;;;5.88;;
23175;SDS011;19910;42.652;23.332;2023-01-30T10:33:05;15.85;;;5.07;;
23175;SDS011;19910;42.652;23.332;2023-01-30T10:35:38;5.90;;;3.28;;
23175;SDS011;19910;42.652;23.332;2023-01-30T10:38:11;16.70;;;6.63;;
23175;SDS011;19910;42.652;23.332;2023-01-30T10:40:46;8.20;;;4.30;;
23175;SDS011;19910;42.652;23.332;2023-01-30T10:43:18;7.85;;;2.40;;
23175;SDS011;19910;42.652;23.332;2023-01-30T10:45:53;4.57;;;2.63;;
23175;SDS011;19910;42.652;23.332;2023-01-30T10:48:36;8.73;;;4.40;;
23175;SDS011;19910;42.652;23.332;2023-01-30T10:51:17;11.45;;;4.82;;
23175;SDS011;19910;42.652;23.332;2023-01-30T10:54:02;13.50;;;3.38;;
23175;SDS011;19910;42.652;23.332;2023-01-30T10:56:40;23.00;;;7.57;;
23175;SDS011;19910;42.652;23.332;2023-01-30T10:59:20;13.00;;;6.20;;
23175;SDS011;19910;42.652;23.332;2023-01-30T11:02:00;16.52;;;6.93;;
23175;SDS011;19910;42.652;23.332;2023-01-30T11:04:36;16.30;;;7.60;;
23175;SDS011;19910;42.652;23.332;2023-01-30T11:07:09;10.35;;;4.03;;
23175;SDS011;19910;42.652;23.332;2023-01-30T11:09:38;11.93;;;5.30;;
23175;SDS011;19910;42.652;23.332;2023-01-30T11:12:08;15.82;;;6.75;;
23175;SDS011;19910;42.652;23.332;2023-01-30T11:14:55;11.68;;;5.45;;
23175;SDS011;19910;42.652;23.332;2023-01-30T11:17:27;11.05;;;5.35;;
23175;SDS011;19910;42.652;23.332;2023-01-30T11:20:02;9.70;;;4.78;;
23175;SDS011;19910;42.652;23.332;2023-01-30T11:22:33;14.85;;;6.78;;
23175;SDS011;19910;42.652;23.332;2023-01-30T11:25:03;7.60;;;4.85;;
23175;SDS011;19910;42.652;23.332;2023-01-30T11:27:38;12.35;;;6.32;;
23175;SDS011;19910;42.652;23.332;2023-01-30T11:30:12;10.32;;;4.93;;
23175;SDS011;19910;42.652;23.332;2023-01-30T11:32:40;5.63;;;4.88;;
23175;SDS011;19910;42.652;23.332;2023-01-30T11:35:25;16.38;;;6.50;;
23175;SDS011;19910;42.652;23.332;2023-01-30T11:37:53;18.58;;;7.50;;
23175;SDS011;19910;42.652;23.332;2023-01-30T11:40:36;12.40;;;6.15;;
23175;SDS011;19910;42.652;23.332;2023-01-30T11:43:09;14.77;;;6.43;;
23175;SDS011;19910;42.652;23.332;2023-01-30T11:45:38;8.25;;;5.00;;
23175;SDS011;19910;42.652;23.332;2023-01-30T11:48:10;14.95;;;6.43;;
23175;SDS011;19910;42.652;23.332;2023-01-30T11:50:41;13.02;;;6.85;;
23175;SDS011;19910;42.652;23.332;2023-01-30T11:53:13;13.02;;;4.63;;
23175;SDS011;19910;42.652;23.332;2023-01-30T11:55:55;13.60;;;5.95;;
23175;SDS011;19910;42.652;23.332;2023-01-30T11:58:31;5.80;;;4.03;;
23175;SDS011;19910;42.652;23.332;2023-01-30T12:01:00;8.73;;;3.60;;
23175;SDS011;19910;42.652;23.332;2023-01-30T12:03:28;7.60;;;4.20;;
23175;SDS011;19910;42.652;23.332;2023-01-30T12:05:56;22.42;;;9.73;;
23175;SDS011;19910;42.652;23.332;2023-01-30T12:08:25;15.30;;;6.05;;
23175;SDS011;19910;42.652;23.332;2023-01-30T12:10:58;11.93;;;6.38;;
23175;SDS011;19910;42.652;23.332;2023-01-30T12:13:30;16.05;;;6.20;;
23175;SDS011;19910;42.652;23.332;2023-01-30T12:16:11;12.73;;;5.75;;
23175;SDS011;19910;42.652;23.332;2023-01-30T12:18:44;11.27;;;5.03;;
23175;SDS011;19910;42.652;23.332;2023-01-30T12:21:22;13.23;;;5.97;;
23175;SDS011;19910;42.652;23.332;2023-01-30T12:23:59;8.45;;;4.50;;
23175;SDS011;19910;42.652;23.332;2023-01-30T12:26:33;15.75;;;6.07;;
23175;SDS011;19910;42.652;23.332;2023-01-30T12:29:09;11.00;;;5.40;;
23175;SDS011;19910;42.652;23.332;2023-01-30T12:31:47;13.93;;;6.15;;
23175;SDS011;19910;42.652;23.332;2023-01-30T12:34:20;12.90;;;6.05;;
23175;SDS011;19910;42.652;23.332;2023-01-30T12:36:49;3.42;;;2.60;;
23175;SDS011;19910;42.652;23.332;2023-01-30T12:39:27;9.80;;;5.18;;
23175;SDS011;19910;42.652;23.332;2023-01-30T12:42:11;7.13;;;4.55;;
23175;SDS011;19910;42.652;23.332;2023-01-30T12:44:59;7.40;;;3.38;;
23175;SDS011;19910;42.652;23.332;2023-01-30T12:47:44;5.38;;;2.58;;
23175;SDS011;19910;42.652;23.332;2023-01-30T12:50:34;4.88;;;3.58;;
23175;SDS011;19910;42.652;23.332;2023-01-30T12:56:27;8.07;;;4.05;;
23175;SDS011;19910;42.652;23.332;2023-01-30T12:59:07;4.57;;;3.13;;
23175;SDS011;19910;42.652;23.332;2023-01-30T13:01:43;5.20;;;2.67;;
23175;SDS011;19910;42.652;23.332;2023-01-30T13:04:21;15.25;;;5.00;;
23175;SDS011;19910;42.652;23.332;2023-01-30T13:07:00;9.43;;;5.18;;
23175;SDS011;19910;42.652;23.332;2023-01-30T13:09:51;7.78;;;2.63;;
23175;SDS011;19910;42.652;23.332;2023-01-30T13:12:30;5.03;;;1.48;;
23175;SDS011;19910;42.652;23.332;2023-01-30T13:15:06;4.60;;;2.60;;
23175;SDS011;19910;42.652;23.332;2023-01-30T13:17:47;4.95;;;2.90;;
23175;SDS011;19910;42.652;23.332;2023-01-30T13:20:33;4.40;;;3.22;;
23175;SDS011;19910;42.652;23.332;2023-01-30T13:23:09;8.07;;;4.15;;
23175;SDS011;19910;42.652;23.332;2023-01-30T13:25:44;3.65;;;2.53;;
23175;SDS011;19910;42.652;23.332;2023-01-30T13:28:18;12.27;;;4.35;;
23175;SDS011;19910;42.652;23.332;2023-01-30T13:30:49;6.60;;;3.50;;
23175;SDS011;19910;42.652;23.332;2023-01-30T13:33:21;7.82;;;2.55;;
23175;SDS011;19910;42.652;23.332;2023-01-30T13:35:53;4.93;;;2.55;;
23175;SDS011;19910;42.652;23.332;2023-01-30T13:38:27;8.48;;;3.90;;
23175;SDS011;19910;42.652;23.332;2023-01-30T13:40:56;4.88;;;2.92;;
23175;SDS011;19910;42.652;23.332;2023-01-30T13:43:25;5.03;;;2.67;;
23175;SDS011;19910;42.652;23.332;2023-01-30T13:45:56;2.97;;;1.83;;
23175;SDS011;19910;42.652;23.332;2023-01-30T13:48:34;4.95;;;2.38;;
23175;SDS011;19910;42.652;23.332;2023-01-30T13:54:12;8.10;;;4.60;;
23175;SDS011;19910;42.652;23.332;2023-01-30T13:56:52;11.95;;;4.68;;
23175;SDS011;19910;42.652;23.332;2023-01-30T13:59:24;12.27;;;5.20;;
23175;SDS011;19910;42.652;23.332;2023-01-30T14:02:08;7.07;;;3.25;;
23175;SDS011;19910;42.652;23.332;2023-01-30T14:04:44;11.63;;;4.82;;
23175;SDS011;19910;42.652;23.332;2023-01-30T14:07:14;12.75;;;4.53;;
23175;SDS011;19910;42.652;23.332;2023-01-30T14:09:47;24.73;;;7.10;;
23175;SDS011;19910;42.652;23.332;2023-01-30T14:12:16;11.00;;;5.55;;
23175;SDS011;19910;42.652;23.332;2023-01-30T14:14:56;13.10;;;5.43;;
23175;SDS011;19910;42.652;23.332;2023-01-30T14:17:28;10.77;;;4.80;;
23175;SDS011;19910;42.652;23.332;2023-01-30T14:20:01;13.90;;;7.93;;
23175;SDS011;19910;42.652;23.332;2023-01-30T14:22:35;11.10;;;4.10;;
23175;SDS011;19910;42.652;23.332;2023-01-30T14:25:28;5.57;;;3.10;;
23175;SDS011;19910;42.652;23.332;2023-01-30T14:34:37;28.27;;;12.73;;
23175;SDS011;19910;42.652;23.332;2023-01-30T14:40:25;25.48;;;10.73;;
23175;SDS011;19910;42.652;23.332;2023-01-30T14:46:00;26.02;;;10.73;;
23175;SDS011;19910;42.652;23.332;2023-01-30T14:48:30;6.63;;;3.58;;
23175;SDS011;19910;42.652;23.332;2023-01-30T14:51:18;22.83;;;6.80;;
23175;SDS011;19910;42.652;23.332;2023-01-30T14:53:48;23.55;;;10.25;;
23175;SDS011;19910;42.652;23.332;2023-01-30T14:56:20;22.77;;;10.40;;
23175;SDS011;19910;42.652;23.332;2023-01-30T14:59:02;26.77;;;12.77;;
23175;SDS011;19910;42.652;23.332;2023-01-30T15:01:53;26.58;;;7.70;;
23175;SDS011;19910;42.652;23.332;2023-01-30T15:04:39;20.05;;;9.05;;
23175;SDS011;19910;42.652;23.332;2023-01-30T15:07:11;27.92;;;13.43;;
23175;SDS011;19910;42.652;23.332;2023-01-30T15:09:43;21.98;;;9.88;;
23175;SDS011;19910;42.652;23.332;2023-01-30T15:12:23;30.63;;;13.93;;
23175;SDS011;19910;42.652;23.332;2023-01-30T15:15:06;31.40;;;13.55;;
23175;SDS011;19910;42.652;23.332;2023-01-30T15:17:45;29.95;;;12.23;;
23175;SDS011;19910;42.652;23.332;2023-01-30T15:20:24;31.73;;;12.88;;
23175;SDS011;19910;42.652;23.332;2023-01-30T15:26:14;39.20;;;15.68;;